Time;durP1;ratioP1;P1;durP2;ratioP2;P2;SDS_P1;SDS_P2;PMS_P1;PMS_P2;Temp;Humidity;BMP_temperature;BMP_pressure;BME280_temperature;BME280_humidity;BME280_pressure;Samples;Min_cycle;Max_cycle;Signal;HPM_P1;HPM_P2
2023/12/14 00:01:14;;;;;;;10.93;4.90;;;19.20;59.00;;;;;;5108470;28;20494;-54
2023/12/14 00:03:41;;;;;;;10.75;5.18;;;19.10;58.70;;;;;;5108343;28;20028;-55
2023/12/14 00:06:08;;;;;;;11.43;5.32;;;19.10;58.90;;;;;;5108448;28;20609;-57
2023/12/14 00:08:34;;;;;;;9.48;4.88;;;19.10;58.70;;;;;;5107968;28;20111;-51
2023/12/14 00:11:07;;;;;;;25.45;5.28;;;19.20;58.60;;;;;;5108230;28;20497;-55
2023/12/14 00:13:33;;;;;;;11.70;4.72;;;19.10;58.70;;;;;;5108161;28;20067;-54
2023/12/14 00:15:59;;;;;;;10.38;4.63;;;19.10;58.70;;;;;;5108314;28;20028;-57
2023/12/14 00:18:25;;;;;;;11.95;4.90;;;19.10;58.70;;;;;;5108059;28;20036;-54
2023/12/14 00:20:52;;;;;;;12.75;4.63;;;19.10;58.60;;;;;;5108042;28;20363;-53
2023/12/14 00:23:18;;;;;;;11.23;5.35;;;19.10;58.70;;;;;;5107993;28;20170;-54
2023/12/14 00:25:44;;;;;;;14.55;5.50;;;19.10;58.70;;;;;;5107992;28;20020;-52
2023/12/14 00:28:10;;;;;;;7.57;4.50;;;19.10;58.60;;;;;;5107493;28;20032;-57
2023/12/14 00:30:35;;;;;;;15.10;5.13;;;19.10;58.60;;;;;;5093710;28;20031;-56
2023/12/14 00:33:01;;;;;;;9.85;5.00;;;19.10;58.40;;;;;;5094171;28;20032;-57
2023/12/14 00:35:27;;;;;;;7.38;4.60;;;19.10;58.60;;;;;;5094333;28;20028;-57
2023/12/14 00:37:53;;;;;;;8.50;4.43;;;19.10;58.40;;;;;;5094258;28;20043;-55
2023/12/14 00:40:18;;;;;;;10.45;5.22;;;19.10;58.30;;;;;;5094285;28;20483;-54
2023/12/14 00:42:44;;;;;;;9.55;4.65;;;19.10;58.60;;;;;;5094092;28;20073;-57
2023/12/14 00:45:10;;;;;;;9.68;4.95;;;19.10;58.50;;;;;;5094052;28;20424;-57
2023/12/14 00:47:36;;;;;;;11.98;5.35;;;19.10;58.50;;;;;;5093636;28;20430;-57
2023/12/14 00:50:02;;;;;;;8.88;4.97;;;19.00;58.30;;;;;;5093866;28;20054;-50
2023/12/14 00:52:28;;;;;;;9.32;4.72;;;19.10;58.50;;;;;;5093955;28;20043;-54
2023/12/14 00:54:53;;;;;;;10.35;4.30;;;19.10;58.30;;;;;;5093871;28;20020;-57
2023/12/14 00:57:19;;;;;;;8.82;4.60;;;19.00;58.30;;;;;;5093872;28;20064;-57
2023/12/14 00:59:45;;;;;;;10.52;4.90;;;19.10;58.10;;;;;;5093490;28;20070;-53
2023/12/14 01:02:11;;;;;;;9.45;4.60;;;19.10;58.40;;;;;;5093593;28;20030;-57
2023/12/14 01:04:37;;;;;;;13.60;4.68;;;19.10;58.40;;;;;;5093856;28;20024;-56
2023/12/14 01:07:03;;;;;;;10.95;4.90;;;19.10;58.40;;;;;;5093728;28;20034;-56
2023/12/14 01:09:29;;;;;;;8.07;4.47;;;19.10;58.30;;;;;;5093214;28;20028;-55
2023/12/14 01:11:55;;;;;;;8.10;4.35;;;19.10;58.40;;;;;;5093665;28;20049;-53
2023/12/14 01:14:21;;;;;;;7.43;4.10;;;19.00;58.60;;;;;;5093612;28;20529;-56
2023/12/14 01:16:47;;;;;;;9.35;4.60;;;19.10;58.90;;;;;;5093466;28;20024;-56
2023/12/14 01:19:12;;;;;;;9.38;4.50;;;19.10;58.40;;;;;;5093137;28;20035;-54
2023/12/14 01:21:39;;;;;;;7.18;4.45;;;19.10;58.60;;;;;;5093305;28;20032;-56
2023/12/14 01:24:05;;;;;;;12.30;4.30;;;19.10;58.60;;;;;;5093650;28;20028;-55
2023/12/14 01:26:31;;;;;;;6.80;4.10;;;19.10;58.60;;;;;;5093323;28;20027;-58
2023/12/14 01:28:58;;;;;;;9.18;3.80;;;19.00;58.50;;;;;;5093220;28;20428;-56
2023/12/14 01:31:25;;;;;;;7.85;4.35;;;19.10;58.40;;;;;;5093103;28;20078;-56
2023/12/14 01:33:51;;;;;;;9.90;4.28;;;19.00;58.80;;;;;;5093066;28;20024;-57
2023/12/14 01:36:24;;;;;;;7.82;4.50;;;19.00;58.20;;;;;;5092998;28;20027;-54
2023/12/14 01:38:50;;;;;;;9.38;4.15;;;19.00;58.20;;;;;;5092678;28;20024;-57
2023/12/14 01:41:16;;;;;;;6.78;3.92;;;19.00;58.30;;;;;;5092178;28;20024;-55
2023/12/14 01:43:42;;;;;;;8.93;4.20;;;19.00;58.30;;;;;;5092960;28;20028;-57
2023/12/14 01:46:08;;;;;;;13.60;4.40;;;19.00;58.00;;;;;;5093060;28;20441;-57
2023/12/14 01:48:34;;;;;;;12.07;4.32;;;19.10;59.00;;;;;;5092578;28;20027;-56
2023/12/14 01:50:59;;;;;;;13.40;4.65;;;19.00;58.30;;;;;;5092725;28;20062;-57
2023/12/14 01:53:26;;;;;;;10.15;4.18;;;19.00;58.10;;;;;;5092747;28;20024;-56
2023/12/14 01:55:51;;;;;;;7.95;4.05;;;19.10;58.20;;;;;;5092654;28;20035;-56
2023/12/14 01:58:17;;;;;;;11.07;4.20;;;19.00;58.40;;;;;;5092071;28;20024;-54
2023/12/14 02:00:56;;;;;;;10.60;4.53;;;19.10;58.10;;;;;;5092625;28;20069;-57
2023/12/14 02:03:21;;;;;;;10.07;4.45;;;19.10;58.20;;;;;;5092596;28;20372;-57
2023/12/14 02:05:47;;;;;;;7.05;3.58;;;19.10;58.00;;;;;;5092463;28;20031;-58
2023/12/14 02:08:13;;;;;;;8.30;3.83;;;19.00;57.80;;;;;;5092089;28;20103;-57
2023/12/14 02:10:39;;;;;;;6.63;3.92;;;19.00;57.80;;;;;;5092350;28;20439;-57
2023/12/14 02:13:05;;;;;;;5.68;3.70;;;19.00;58.00;;;;;;5092438;28;20386;-56
2023/12/14 02:15:31;;;;;;;7.57;4.10;;;19.10;58.00;;;;;;5092384;28;20047;-56
2023/12/14 02:17:56;;;;;;;9.40;3.85;;;19.00;57.70;;;;;;5091998;28;20035;-55
2023/12/14 02:20:22;;;;;;;7.53;3.58;;;19.00;57.70;;;;;;5092372;28;20040;-55
2023/12/14 02:22:52;;;;;;;8.27;3.80;;;19.00;57.90;;;;;;5092168;28;20099;-51
2023/12/14 02:25:19;;;;;;;8.52;3.83;;;19.00;58.10;;;;;;5092406;28;20410;-54
2023/12/14 02:27:45;;;;;;;9.52;3.80;;;19.00;57.80;;;;;;5091542;28;20036;-51
2023/12/14 02:30:12;;;;;;;5.57;3.60;;;19.00;57.80;;;;;;5092063;28;20020;-57
2023/12/14 02:32:38;;;;;;;7.28;3.78;;;19.00;58.00;;;;;;5091969;28;20028;-55
2023/12/14 02:35:05;;;;;;;7.20;3.80;;;19.00;57.70;;;;;;5091930;28;20052;-58
2023/12/14 02:37:32;;;;;;;6.57;3.63;;;19.00;58.30;;;;;;5091702;28;20040;-57
2023/12/14 02:39:58;;;;;;;8.57;3.88;;;19.00;57.80;;;;;;5091946;28;20046;-56
2023/12/14 02:42:24;;;;;;;5.22;3.50;;;19.00;57.70;;;;;;5091963;28;20024;-57
2023/12/14 02:44:50;;;;;;;6.15;3.50;;;18.90;57.70;;;;;;5091798;28;20143;-56
2023/12/14 02:47:16;;;;;;;8.32;3.80;;;19.00;57.70;;;;;;5091763;28;20132;-57
2023/12/14 02:49:43;;;;;;;7.88;3.30;;;19.00;57.60;;;;;;5091380;28;20032;-57
2023/12/14 02:52:09;;;;;;;7.97;4.25;;;19.00;57.50;;;;;;5091415;28;20035;-53
2023/12/14 02:54:38;;;;;;;5.53;3.28;;;18.90;57.50;;;;;;5091672;28;20017;-56
2023/12/14 02:57:04;;;;;;;6.40;3.50;;;19.00;57.60;;;;;;5091586;28;20152;-58
2023/12/14 02:59:30;;;;;;;6.60;3.67;;;19.00;57.60;;;;;;5091196;28;20032;-57
2023/12/14 03:01:55;;;;;;;6.18;3.50;;;19.00;57.60;;;;;;5092070;28;20458;-57
2023/12/14 03:04:21;;;;;;;5.70;3.40;;;19.00;57.70;;;;;;5091674;28;20027;-56
2023/12/14 03:06:47;;;;;;;9.93;3.40;;;19.00;57.50;;;;;;5091520;28;20432;-57
2023/12/14 03:09:12;;;;;;;6.57;3.33;;;18.90;57.60;;;;;;5091011;28;20028;-56
2023/12/14 03:11:38;;;;;;;6.65;3.38;;;18.90;57.60;;;;;;5091497;28;20103;-54
2023/12/14 03:14:04;;;;;;;5.60;3.65;;;18.90;57.40;;;;;;5090283;28;20032;-54
2023/12/14 03:16:30;;;;;;;7.35;3.40;;;18.90;57.70;;;;;;5091457;28;20034;-56
2023/12/14 03:18:56;;;;;;;5.35;3.10;;;19.00;57.40;;;;;;5090988;28;20044;-56
2023/12/14 03:21:23;;;;;;;5.93;3.53;;;18.90;57.50;;;;;;5091359;28;20035;-57
2023/12/14 03:23:50;;;;;;;4.53;3.22;;;19.00;57.40;;;;;;5091327;28;20025;-57
2023/12/14 03:26:16;;;;;;;4.65;3.08;;;18.90;57.40;;;;;;5091316;28;20020;-57
2023/12/14 03:28:41;;;;;;;8.68;3.38;;;18.90;57.60;;;;;;5090777;28;20410;-53
2023/12/14 03:31:10;;;;;;;7.80;3.55;;;18.90;57.50;;;;;;5091247;28;20020;-56
2023/12/14 03:33:36;;;;;;;6.57;3.45;;;18.90;57.30;;;;;;5091168;28;20502;-55
2023/12/14 03:36:02;;;;;;;6.18;3.30;;;18.90;57.30;;;;;;5091223;28;20032;-57
2023/12/14 03:38:28;;;;;;;4.88;2.83;;;18.90;57.40;;;;;;5090649;28;20471;-57
2023/12/14 03:40:54;;;;;;;6.55;3.40;;;18.90;57.30;;;;;;5091340;28;20070;-52
2023/12/14 03:43:20;;;;;;;6.15;3.13;;;18.90;57.50;;;;;;5091294;28;20091;-52
2023/12/14 03:45:45;;;;;;;5.20;3.45;;;18.90;57.30;;;;;;5091184;28;20103;-54
2023/12/14 03:48:11;;;;;;;14.98;3.25;;;18.90;57.60;;;;;;5090790;28;20032;-56
2023/12/14 03:50:37;;;;;;;7.22;2.97;;;18.90;57.40;;;;;;5091067;28;20031;-56
2023/12/14 03:53:03;;;;;;;5.03;3.20;;;18.90;57.40;;;;;;5091015;28;20080;-56
2023/12/14 03:55:28;;;;;;;7.43;3.40;;;18.90;57.40;;;;;;5091121;28;20056;-57
2023/12/14 03:57:54;;;;;;;4.75;2.78;;;18.90;57.40;;;;;;5090641;28;20463;-57
2023/12/14 04:00:20;;;;;;;5.53;2.95;;;18.90;57.30;;;;;;5091037;28;20644;-54
2023/12/14 04:02:46;;;;;;;5.70;2.92;;;18.90;57.50;;;;;;5091035;28;20478;-57
2023/12/14 04:05:12;;;;;;;4.70;2.90;;;18.90;57.20;;;;;;5093541;28;20536;-57
2023/12/14 04:07:40;;;;;;;6.15;3.50;;;18.90;57.10;;;;;;5094496;28;20056;-57
2023/12/14 04:10:12;;;;;;;4.95;3.25;;;18.90;57.30;;;;;;5094647;28;20068;-57
2023/12/14 04:12:39;;;;;;;5.43;3.05;;;18.90;57.30;;;;;;5094701;28;20035;-56
2023/12/14 04:15:06;;;;;;;5.20;3.30;;;18.90;57.20;;;;;;5094657;28;20099;-57
2023/12/14 04:17:32;;;;;;;5.95;3.00;;;18.90;57.30;;;;;;5094292;28;20035;-54
2023/12/14 04:19:58;;;;;;;6.30;2.97;;;18.90;57.10;;;;;;5094323;28;20031;-56
2023/12/14 04:22:24;;;;;;;7.78;3.13;;;18.90;57.20;;;;;;5094432;28;20039;-56
2023/12/14 04:24:51;;;;;;;4.88;3.30;;;18.90;57.20;;;;;;5094566;28;20046;-53
2023/12/14 04:27:17;;;;;;;5.70;3.17;;;18.90;57.20;;;;;;5094471;28;20036;-57
2023/12/14 04:29:43;;;;;;;4.07;2.83;;;18.90;57.20;;;;;;5094048;28;20463;-57
2023/12/14 04:32:09;;;;;;;5.90;3.47;;;18.90;57.20;;;;;;5094251;28;20106;-50
2023/12/14 04:34:35;;;;;;;5.18;3.22;;;18.90;57.50;;;;;;5094167;28;20054;-54
2023/12/14 04:37:01;;;;;;;5.05;2.80;;;18.90;57.20;;;;;;5094115;28;20032;-57
2023/12/14 04:39:27;;;;;;;5.57;3.33;;;18.90;57.10;;;;;;5093698;28;20024;-55
2023/12/14 04:41:54;;;;;;;4.03;3.00;;;18.90;57.30;;;;;;5094057;28;20032;-54
2023/12/14 04:44:21;;;;;;;7.50;3.20;;;18.90;57.10;;;;;;5094058;28;20475;-56
2023/12/14 04:46:47;;;;;;;5.40;3.35;;;18.90;57.10;;;;;;5094166;28;20028;-57
2023/12/14 04:49:14;;;;;;;5.53;3.13;;;18.90;56.90;;;;;;5093542;28;20077;-53
2023/12/14 04:51:39;;;;;;;7.40;3.00;;;18.90;57.10;;;;;;5093865;28;20556;-52
2023/12/14 04:54:05;;;;;;;5.60;3.00;;;18.90;57.10;;;;;;5093860;28;20023;-57
2023/12/14 04:56:31;;;;;;;6.72;3.55;;;18.90;57.20;;;;;;5093857;28;20031;-57
2023/12/14 04:58:57;;;;;;;4.75;3.10;;;18.90;57.10;;;;;;5093387;28;20032;-55
2023/12/14 05:01:22;;;;;;;6.80;3.13;;;18.90;57.00;;;;;;5093688;28;20024;-57
2023/12/14 05:03:48;;;;;;;4.90;2.88;;;18.90;57.00;;;;;;5093578;28;20074;-51
2023/12/14 05:06:14;;;;;;;4.45;2.78;;;18.90;57.00;;;;;;5093723;28;20016;-58
2023/12/14 05:08:40;;;;;;;6.97;3.38;;;19.00;57.10;;;;;;5093093;28;20391;-58
2023/12/14 05:11:05;;;;;;;4.65;3.05;;;19.00;56.90;;;;;;5093495;28;20032;-55
2023/12/14 05:13:31;;;;;;;6.32;3.30;;;19.00;56.90;;;;;;5093496;28;20088;-53
2023/12/14 05:16:00;;;;;;;5.57;3.00;;;18.90;56.90;;;;;;5093816;28;20040;-57
2023/12/14 05:18:27;;;;;;;4.57;3.03;;;18.90;57.00;;;;;;5092930;28;20506;-57
2023/12/14 05:20:53;;;;;;;5.25;2.70;;;18.90;56.90;;;;;;5093560;28;20415;-57
2023/12/14 05:23:19;;;;;;;7.15;3.10;;;18.90;56.90;;;;;;5093420;28;20028;-53
2023/12/14 05:25:45;;;;;;;6.95;3.22;;;19.00;57.30;;;;;;5093303;28;20023;-54
2023/12/14 05:28:10;;;;;;;4.45;2.88;;;19.00;57.30;;;;;;5092869;28;20032;-57
2023/12/14 05:30:36;;;;;;;4.60;2.80;;;19.00;57.40;;;;;;5091976;28;20023;-57
2023/12/14 05:33:02;;;;;;;5.75;3.35;;;19.00;57.30;;;;;;5092979;28;20253;-54
2023/12/14 05:35:28;;;;;;;5.90;3.33;;;19.00;57.40;;;;;;5091852;28;20028;-52
2023/12/14 05:37:54;;;;;;;6.15;3.22;;;19.00;57.20;;;;;;5092627;28;20032;-54
2023/12/14 05:40:19;;;;;;;6.70;3.13;;;19.00;57.20;;;;;;5093036;28;20111;-57
2023/12/14 05:42:45;;;;;;;5.70;3.35;;;19.00;57.00;;;;;;5092928;28;20016;-56
2023/12/14 05:45:11;;;;;;;5.38;3.30;;;19.00;57.10;;;;;;5092970;28;20052;-57
2023/12/14 05:47:38;;;;;;;5.03;3.17;;;19.00;57.20;;;;;;5092779;28;20441;-57
2023/12/14 05:50:04;;;;;;;6.22;3.22;;;19.00;57.10;;;;;;5092851;28;20407;-58
2023/12/14 05:52:30;;;;;;;5.47;3.13;;;19.00;57.20;;;;;;5092752;28;20032;-56
2023/12/14 05:54:56;;;;;;;5.57;3.30;;;19.00;57.10;;;;;;5092423;28;20089;-52
2023/12/14 05:57:22;;;;;;;6.20;3.30;;;19.00;57.30;;;;;;5092603;28;20089;-51
2023/12/14 05:59:49;;;;;;;5.15;3.28;;;19.00;57.20;;;;;;5092265;28;20111;-52
2023/12/14 06:02:15;;;;;;;6.53;3.50;;;19.00;57.10;;;;;;5092555;28;20036;-50
2023/12/14 06:04:41;;;;;;;6.40;3.38;;;19.00;57.10;;;;;;5092482;28;20104;-54
2023/12/14 06:07:07;;;;;;;6.13;3.17;;;19.00;57.10;;;;;;5092535;28;20480;-54
2023/12/14 06:09:35;;;;;;;6.90;3.60;;;19.00;57.00;;;;;;5092099;28;20024;-53
2023/12/14 06:12:02;;;;;;;5.22;3.13;;;19.00;57.20;;;;;;5092352;28;20021;-50
2023/12/14 06:14:29;;;;;;;6.25;3.50;;;19.00;57.40;;;;;;5092341;28;20020;-50
2023/12/14 06:16:55;;;;;;;6.05;3.42;;;19.00;57.00;;;;;;5092039;28;20035;-53
2023/12/14 06:19:21;;;;;;;6.22;3.38;;;19.00;57.30;;;;;;5091696;28;20031;-53
2023/12/14 06:21:48;;;;;;;5.40;3.65;;;19.00;57.20;;;;;;5092231;28;20024;-57
2023/12/14 06:24:14;;;;;;;5.90;3.55;;;19.00;57.20;;;;;;5092037;28;20032;-52
2023/12/14 06:26:43;;;;;;;5.03;3.13;;;19.00;57.00;;;;;;5091679;28;20031;-57
2023/12/14 06:29:10;;;;;;;6.57;3.38;;;19.00;57.20;;;;;;5091814;28;20449;-57
2023/12/14 06:31:37;;;;;;;6.45;3.65;;;18.90;56.90;;;;;;5091945;28;20028;-50
2023/12/14 06:34:03;;;;;;;6.10;3.13;;;19.00;57.10;;;;;;5092047;28;20064;-57
2023/12/14 06:36:33;;;;;;;8.48;3.63;;;19.00;57.10;;;;;;5091879;28;20103;-54
2023/12/14 06:39:00;;;;;;;5.60;3.55;;;19.00;56.80;;;;;;5091417;28;20032;-56
2023/12/14 06:41:27;;;;;;;5.80;3.40;;;19.00;56.90;;;;;;5091890;28;20035;-57
2023/12/14 06:43:54;;;;;;;7.88;3.60;;;19.00;57.00;;;;;;5091697;28;20035;-54
2023/12/14 06:46:20;;;;;;;4.85;2.95;;;19.00;57.00;;;;;;5091503;28;20102;-57
2023/12/14 06:48:46;;;;;;;7.43;3.75;;;19.00;56.70;;;;;;5091270;28;20111;-53
2023/12/14 06:51:12;;;;;;;6.72;3.60;;;19.00;57.10;;;;;;5090499;28;20020;-57
2023/12/14 06:53:42;;;;;;;5.32;3.50;;;19.10;56.70;;;;;;5091623;28;20058;-54
2023/12/14 06:56:10;;;;;;;;;;;19.00;56.80;;;;;;5092144;28;20104;-57
2023/12/14 06:58:38;;;;;;;5.70;3.25;;;19.00;56.60;;;;;;5091098;28;19919;-55
2023/12/14 07:01:04;;;;;;;6.53;3.50;;;19.10;56.50;;;;;;5091534;28;20060;-54
2023/12/14 07:03:29;;;;;;;6.50;3.70;;;19.00;56.40;;;;;;5091468;28;20030;-57
2023/12/14 07:05:55;;;;;;;5.15;3.38;;;19.10;56.50;;;;;;5091378;28;20099;-57
2023/12/14 07:08:21;;;;;;;6.03;3.78;;;19.10;56.50;;;;;;5091098;28;20115;-56
2023/12/14 07:10:46;;;;;;;5.32;3.40;;;19.10;56.60;;;;;;5091445;28;20226;-55
2023/12/14 07:13:12;;;;;;;8.95;3.42;;;19.10;56.60;;;;;;5091631;28;20488;-57
2023/12/14 07:15:38;;;;;;;6.55;3.55;;;19.00;56.60;;;;;;5091457;28;20372;-56
2023/12/14 07:18:04;;;;;;;6.30;3.67;;;19.10;56.70;;;;;;5090902;28;20028;-53
2023/12/14 07:20:29;;;;;;;7.28;3.42;;;19.00;57.10;;;;;;5091221;28;20503;-58
2023/12/14 07:22:55;;;;;;;7.82;3.88;;;19.10;57.50;;;;;;5090014;28;20073;-58
2023/12/14 07:25:21;;;;;;;17.50;4.38;;;19.00;56.10;;;;;;5091192;28;20043;-54
2023/12/14 07:27:47;;;;;;;10.60;4.70;;;18.80;51.40;;;;;;5090682;28;20062;-58
2023/12/14 07:30:13;;;;;;;11.05;4.57;;;18.60;50.90;;;;;;5091402;28;20062;-58
2023/12/14 07:32:39;;;;;;;21.23;4.07;;;18.60;51.70;;;;;;5091350;28;20145;-54
2023/12/14 07:35:06;;;;;;;14.27;3.60;;;18.70;53.00;;;;;;5091196;28;20558;-57
2023/12/14 07:37:32;;;;;;;16.45;3.92;;;18.80;53.70;;;;;;5091138;28;20479;-58
2023/12/14 07:39:58;;;;;;;21.10;3.53;;;18.80;53.60;;;;;;5093495;28;20020;-56
2023/12/14 07:42:24;;;;;;;24.48;3.78;;;18.90;53.90;;;;;;5095239;28;20024;-58
2023/12/14 07:44:50;;;;;;;21.33;4.40;;;18.90;54.40;;;;;;5095308;28;20031;-56
2023/12/14 07:47:16;;;;;;;13.60;4.28;;;18.90;54.80;;;;;;5095448;28;20032;-57
2023/12/14 07:49:41;;;;;;;18.05;3.80;;;19.00;55.20;;;;;;5095468;28;20054;-59
2023/12/14 17:42:27;;;;;;;8.73;5.00;;;18.70;54.70;;;;;;5157323;27;20410;-59
2023/12/14 17:44:53;;;;;;;14.07;5.40;;;18.80;55.00;;;;;;5159672;27;20027;-60
2023/12/14 17:47:19;;;;;;;8.90;4.38;;;18.90;54.90;;;;;;5170494;27;20079;-60
2023/12/14 17:49:45;;;;;;;10.43;4.82;;;18.90;54.70;;;;;;5161888;27;20014;-59
2023/12/14 17:52:12;;;;;;;8.00;4.68;;;18.90;54.60;;;;;;5169604;27;20430;-61
2023/12/14 17:54:39;;;;;;;8.90;4.10;;;18.90;54.50;;;;;;5159209;27;20034;-59
2023/12/14 17:57:05;;;;;;;7.22;4.18;;;18.90;54.80;;;;;;5151105;27;20023;-60
2023/12/14 17:59:31;;;;;;;7.35;4.50;;;18.90;54.50;;;;;;5170433;27;20060;-59
2023/12/14 18:01:57;;;;;;;12.82;5.68;;;18.90;54.40;;;;;;5169921;27;20027;-61
2023/12/14 18:04:23;;;;;;;12.57;5.82;;;18.90;54.50;;;;;;5159094;27;20042;-58
2023/12/14 18:06:49;;;;;;;15.55;5.40;;;18.90;54.50;;;;;;5163657;27;20031;-60
2023/12/14 18:09:16;;;;;;;12.40;5.05;;;18.90;54.20;;;;;;5157299;27;20042;-60
2023/12/14 18:11:42;;;;;;;10.63;4.70;;;18.90;54.60;;;;;;5168135;27;20522;-60
2023/12/14 18:14:08;;;;;;;10.18;5.22;;;18.90;54.60;;;;;;5170055;27;20029;-60
2023/12/14 18:16:38;;;;;;;10.23;4.57;;;18.90;54.70;;;;;;5169953;27;20404;-60
2023/12/14 18:19:04;;;;;;;;;;;18.90;54.70;;;;;;5170548;27;20018;-60
2023/12/14 18:21:29;;;;;;;8.90;4.82;;;18.90;54.30;;;;;;5169581;27;20266;-60
2023/12/14 18:23:55;;;;;;;12.85;5.22;;;18.90;54.30;;;;;;5169875;27;20531;-58
2023/12/14 18:26:21;;;;;;;10.18;5.20;;;18.90;54.40;;;;;;5156864;27;20471;-61
2023/12/14 18:28:47;;;;;;;8.98;5.05;;;18.90;54.90;;;;;;5170093;27;20022;-60
2023/12/14 18:31:13;;;;;;;9.35;5.00;;;18.90;54.80;;;;;;5169510;27;20033;-60
2023/12/14 18:33:39;;;;;;;9.40;4.93;;;18.90;54.30;;;;;;5169723;27;20045;-61
2023/12/14 18:36:06;;;;;;;11.38;4.88;;;18.90;54.60;;;;;;5169634;27;20102;-60
2023/12/14 18:38:33;;;;;;;7.13;4.55;;;18.90;55.10;;;;;;5151264;27;20053;-59
2023/12/14 18:41:02;;;;;;;9.77;4.68;;;18.90;55.10;;;;;;5159283;27;20026;-59
2023/12/14 18:43:28;;;;;;;8.82;4.90;;;18.90;55.20;;;;;;5155810;27;20033;-60
2023/12/14 18:45:53;;;;;;;8.82;4.85;;;18.90;55.30;;;;;;5155853;27;20113;-60
2023/12/14 18:48:20;;;;;;;8.80;4.72;;;18.90;55.20;;;;;;5155809;27;20035;-61
2023/12/14 18:50:46;;;;;;;8.27;5.00;;;18.90;55.40;;;;;;5146965;27;20027;-60
2023/12/14 18:53:12;;;;;;;9.63;5.03;;;19.00;55.50;;;;;;5155766;27;20098;-60
2023/12/14 18:55:38;;;;;;;9.88;4.70;;;18.90;55.20;;;;;;5155502;27;20482;-60
2023/12/14 18:58:07;;;;;;;7.57;4.28;;;18.90;55.20;;;;;;5155493;27;20074;-59
2023/12/14 19:00:33;;;;;;;11.35;4.95;;;19.00;55.30;;;;;;5155312;27;20022;-55
2023/12/14 19:02:58;;;;;;;8.98;4.93;;;19.00;55.40;;;;;;5155328;27;20496;-57
2023/12/14 19:05:26;;;;;;;8.00;4.68;;;18.90;54.80;;;;;;5155197;27;20030;-54
2023/12/14 19:07:55;;;;;;;11.25;5.35;;;19.00;55.30;;;;;;5155467;27;20027;-53
2023/12/14 19:10:20;;;;;;;11.40;5.80;;;19.00;55.70;;;;;;5136900;27;20042;-58
2023/12/14 19:12:47;;;;;;;10.38;5.22;;;19.00;55.20;;;;;;5130648;27;20015;-58
2023/12/14 19:15:13;;;;;;;10.65;6.07;;;18.90;55.20;;;;;;5146742;27;20034;-58
2023/12/14 19:17:39;;;;;;;18.45;7.15;;;19.00;54.70;;;;;;5135707;27;20424;-53
2023/12/14 19:20:10;;;;;;;13.23;7.25;;;18.90;54.60;;;;;;5134373;27;20069;-54
2023/12/14 19:22:39;;;;;;;12.80;6.88;;;18.90;54.70;;;;;;5134096;27;20524;-55
2023/12/14 19:25:10;;;;;;;15.30;6.40;;;18.90;54.80;;;;;;5134500;27;20031;-58
2023/12/14 19:27:40;;;;;;;14.13;6.32;;;18.90;54.90;;;;;;5134489;27;20038;-58
2023/12/14 19:30:08;;;;;;;14.73;6.65;;;18.90;54.80;;;;;;5134348;27;20110;-56
2023/12/14 19:32:37;;;;;;;14.63;7.18;;;18.90;54.70;;;;;;5134091;27;20481;-57
2023/12/14 19:35:04;;;;;;;12.68;6.47;;;18.90;55.40;;;;;;5134500;27;20427;-55
2023/12/14 19:37:31;;;;;;;13.13;6.35;;;18.90;54.90;;;;;;5134189;27;20030;-56
2023/12/14 19:39:58;;;;;;;17.13;7.18;;;18.90;54.90;;;;;;5134185;27;20027;-55
2023/12/14 19:42:23;;;;;;;17.13;7.20;;;18.90;54.80;;;;;;5133704;27;20027;-52
2023/12/14 19:44:49;;;;;;;15.27;6.60;;;19.00;54.70;;;;;;5134140;27;20034;-55
2023/12/14 19:47:16;;;;;;;12.95;6.40;;;19.00;54.70;;;;;;5134064;27;20105;-52
2023/12/14 19:49:42;;;;;;;12.82;6.75;;;19.00;54.70;;;;;;5133885;27;20025;-56
2023/12/14 19:52:10;;;;;;;19.00;6.95;;;19.00;54.60;;;;;;5133681;27;20023;-56
2023/12/14 19:54:36;;;;;;;13.07;6.32;;;19.00;54.70;;;;;;5133143;27;20023;-56
2023/12/14 19:57:02;;;;;;;16.48;7.30;;;19.00;54.60;;;;;;5133963;27;20102;-57
2023/12/14 19:59:28;;;;;;;16.65;7.22;;;19.00;55.00;;;;;;5132590;27;20030;-57
2023/12/14 20:01:54;;;;;;;16.77;7.18;;;19.00;54.60;;;;;;5133328;27;20039;-57
2023/12/14 20:04:21;;;;;;;19.63;7.03;;;19.00;54.90;;;;;;5145025;27;20037;-56
2023/12/14 20:06:47;;;;;;;18.35;7.72;;;19.00;55.00;;;;;;5142840;27;20068;-58
2023/12/14 20:09:13;;;;;;;22.63;8.20;;;19.00;54.80;;;;;;5145926;27;20031;-60
2023/12/14 20:11:38;;;;;;;22.65;7.90;;;19.00;55.10;;;;;;5139686;27;20035;-55
2023/12/14 20:14:04;;;;;;;18.67;8.20;;;19.00;54.80;;;;;;5138615;27;20037;-58
2023/12/14 20:16:30;;;;;;;20.02;7.32;;;19.00;54.90;;;;;;5132338;27;20025;-57
2023/12/14 20:18:56;;;;;;;26.45;7.95;;;19.10;54.80;;;;;;5130511;27;20083;-55
2023/12/14 20:21:21;;;;;;;19.70;7.88;;;19.00;55.00;;;;;;5135805;27;20468;-59
2023/12/14 20:23:47;;;;;;;21.65;8.35;;;19.10;55.30;;;;;;5150081;27;20047;-58
2023/12/14 20:26:23;;;;;;;18.10;7.75;;;19.00;55.10;;;;;;5149990;27;20105;-55
2023/12/14 20:28:49;;;;;;;17.33;8.27;;;19.10;54.40;;;;;;5149840;27;20039;-58
2023/12/14 20:31:15;;;;;;;18.40;8.15;;;19.10;55.60;;;;;;5121080;27;20027;-58
2023/12/14 20:33:42;;;;;;;24.80;8.13;;;19.10;57.40;;;;;;5132595;27;20100;-57
2023/12/14 20:36:10;;;;;;;24.50;7.93;;;19.20;57.30;;;;;;5139719;27;20067;-56
2023/12/14 20:38:35;;;;;;;40.25;8.70;;;19.20;57.80;;;;;;5144370;27;20033;-56
2023/12/14 20:41:01;;;;;;;20.80;8.27;;;19.20;58.10;;;;;;5139793;27;20034;-57
2023/12/14 20:43:27;;;;;;;22.20;8.60;;;19.30;57.30;;;;;;5141637;27;20035;-56
2023/12/14 20:45:53;;;;;;;25.48;8.50;;;19.30;57.90;;;;;;5153532;27;20033;-57
2023/12/14 20:48:18;;;;;;;21.83;9.52;;;19.30;57.20;;;;;;5152884;27;20423;-56
2023/12/14 20:50:44;;;;;;;19.60;8.38;;;19.30;58.10;;;;;;5148964;27;20023;-58
2023/12/14 20:53:10;;;;;;;36.60;9.73;;;19.20;57.60;;;;;;5142004;27;20497;-57
2023/12/14 20:55:35;;;;;;;29.73;10.85;;;19.30;59.30;;;;;;5144068;27;20023;-59
2023/12/14 20:58:01;;;;;;;24.33;9.48;;;19.30;61.30;;;;;;5147800;27;20105;-59
2023/12/14 21:00:30;;;;;;;25.65;9.02;;;19.30;62.10;;;;;;5138387;27;20031;-57
2023/12/14 21:02:56;;;;;;;24.02;9.00;;;19.40;61.70;;;;;;5145655;27;20039;-59
2023/12/14 21:05:22;;;;;;;21.30;8.10;;;19.30;61.20;;;;;;5142236;27;20027;-58
2023/12/14 21:07:48;;;;;;;20.52;8.13;;;19.30;61.00;;;;;;5153032;27;20068;-59
2023/12/14 21:10:13;;;;;;;21.67;9.07;;;19.30;60.40;;;;;;5152934;27;20078;-58
2023/12/14 21:12:39;;;;;;;27.58;8.77;;;19.30;59.20;;;;;;5152499;27;20063;-58
2023/12/14 21:15:05;;;;;;;18.88;8.57;;;19.30;58.60;;;;;;5153018;27;20018;-59
2023/12/14 21:17:31;;;;;;;18.95;8.57;;;19.20;58.40;;;;;;5153094;27;20392;-59
2023/12/14 21:19:57;;;;;;;19.23;8.27;;;19.20;58.70;;;;;;5117523;27;20035;-58
2023/12/14 21:22:23;;;;;;;22.23;8.75;;;19.20;57.90;;;;;;5152718;27;20106;-59
2023/12/14 21:24:50;;;;;;;19.77;8.57;;;19.20;58.00;;;;;;5144359;27;20481;-58
2023/12/14 21:30:00;;;;;;;17.15;8.05;;;19.20;57.60;;;;;;5152664;27;20060;-58
2023/12/14 21:32:26;;;;;;;18.33;8.05;;;19.20;57.50;;;;;;5152266;27;20037;-59
2023/12/14 21:34:52;;;;;;;17.73;7.78;;;19.20;57.30;;;;;;5152802;27;20030;-58
2023/12/14 21:37:18;;;;;;;20.80;8.77;;;19.20;57.20;;;;;;5153094;27;20046;-59
2023/12/14 21:39:43;;;;;;;19.63;8.05;;;19.20;57.20;;;;;;5152709;27;20053;-59
2023/12/14 21:42:09;;;;;;;17.50;7.95;;;19.10;57.60;;;;;;5152245;27;20022;-59
2023/12/14 21:44:35;;;;;;;19.30;8.43;;;19.20;57.10;;;;;;5152712;27;20027;-58
2023/12/14 21:47:01;;;;;;;15.25;7.82;;;19.20;57.10;;;;;;5152464;27;20041;-58
2023/12/14 21:49:27;;;;;;;15.77;7.50;;;19.10;57.00;;;;;;5152683;27;20065;-57
2023/12/14 21:51:52;;;;;;;17.48;7.80;;;19.10;57.00;;;;;;5151995;27;20015;-57
2023/12/14 21:54:18;;;;;;;13.32;7.30;;;19.10;56.90;;;;;;5152777;27;20042;-58
2023/12/14 21:56:44;;;;;;;19.17;8.15;;;19.10;57.00;;;;;;5152504;27;20030;-58
2023/12/14 21:59:10;;;;;;;18.65;7.75;;;19.10;57.00;;;;;;5152602;27;20026;-58
2023/12/14 22:01:36;;;;;;;16.05;6.82;;;19.10;56.70;;;;;;5152125;27;20038;-58
2023/12/14 22:04:03;;;;;;;15.77;7.60;;;19.10;56.90;;;;;;5152554;27;20039;-57
2023/12/14 22:06:29;;;;;;;16.98;7.50;;;19.00;56.70;;;;;;5152303;27;20438;-55
2023/12/14 22:08:55;;;;;;;16.05;7.47;;;19.10;56.80;;;;;;5134087;27;20026;-58
2023/12/14 22:11:22;;;;;;;15.27;6.82;;;19.10;56.60;;;;;;5152008;27;20038;-56
2023/12/14 22:13:48;;;;;;;18.60;8.18;;;19.10;56.70;;;;;;5152190;27;20026;-56
2023/12/14 22:16:14;;;;;;;13.35;6.32;;;19.10;56.70;;;;;;5151223;27;20385;-58
2023/12/14 22:18:40;;;;;;;15.50;7.30;;;19.10;56.70;;;;;;5145586;27;20014;-58
2023/12/14 22:21:06;;;;;;;16.98;7.15;;;19.00;56.80;;;;;;5153036;27;20374;-58
2023/12/14 22:23:32;;;;;;;15.50;7.05;;;19.00;57.30;;;;;;5151692;27;20438;-57
2023/12/14 22:25:57;;;;;;;16.48;7.22;;;19.10;57.40;;;;;;5150393;27;20029;-58
2023/12/14 22:28:23;;;;;;;14.43;6.60;;;19.10;57.90;;;;;;5150193;27;20105;-57
2023/12/14 22:30:49;;;;;;;16.23;7.32;;;19.00;57.60;;;;;;5145528;27;20023;-57